createdAt,value
2022-08-12T00:08:48.330Z,19.68
2022-08-12T00:19:48.033Z,19.53
2022-08-12T00:30:49.076Z,19.42
2022-08-12T00:41:48.960Z,19.32
2022-08-12T00:52:50.381Z,19.14
2022-08-12T01:03:50.334Z,19.09
2022-08-12T01:14:52.050Z,19.06
2022-08-12T01:25:55.769Z,18.90
2022-08-12T01:36:57.088Z,18.95
2022-08-12T01:47:58.598Z,18.80
2022-08-12T01:59:00.856Z,18.79
2022-08-12T02:10:03.060Z,18.89
2022-08-12T02:21:03.401Z,18.80
2022-08-12T02:32:02.188Z,18.77
2022-08-12T02:43:03.788Z,18.64
2022-08-12T02:54:06.159Z,18.64
2022-08-12T03:05:08.503Z,18.53
2022-08-12T03:16:10.989Z,18.31
2022-08-12T03:27:12.302Z,18.27
2022-08-12T03:38:13.613Z,18.37
2022-08-12T03:49:14.422Z,18.03
2022-08-12T04:00:24.089Z,17.87
2022-08-12T04:11:20.980Z,17.82
2022-08-12T04:22:21.868Z,17.81
2022-08-12T04:33:23.693Z,17.96
2022-08-12T04:44:24.698Z,18.00
2022-08-12T04:55:22.840Z,17.95
2022-08-12T05:06:27.072Z,18.14
2022-08-12T05:17:27.263Z,18.55
2022-08-12T05:28:29.140Z,18.59
2022-08-12T05:39:30.025Z,18.58
2022-08-12T05:50:31.607Z,18.79
2022-08-12T06:02:10.195Z,19.13
2022-08-12T06:12:39.883Z,19.54
2022-08-12T06:23:42.939Z,19.94
2022-08-12T06:35:24.027Z,20.23
2022-08-12T06:45:49.262Z,20.74
2022-08-12T06:58:06.808Z,21.01
2022-08-12T07:07:52.182Z,21.35
2022-08-12T07:18:52.727Z,21.81
2022-08-12T07:29:58.276Z,21.61
2022-08-12T07:40:56.651Z,22.04
2022-08-12T07:51:56.230Z,22.38
2022-08-12T08:02:56.911Z,23.58
2022-08-12T08:13:56.713Z,23.12
2022-08-12T08:24:56.610Z,23.80
2022-08-12T08:35:57.056Z,23.50
2022-08-12T08:46:56.521Z,23.38
2022-08-12T08:57:56.495Z,23.64
2022-08-12T09:08:55.295Z,23.70
2022-08-12T09:19:58.357Z,24.08
2022-08-12T09:30:58.808Z,24.23
2022-08-12T09:42:33.120Z,24.75
2022-08-12T09:53:04.763Z,24.82
2022-08-12T10:04:04.908Z,25.10
2022-08-12T10:15:04.343Z,25.53
2022-08-12T10:26:18.523Z,25.89
2022-08-12T10:37:10.665Z,25.59
2022-08-12T10:48:21.623Z,26.47
2022-08-12T10:59:19.673Z,26.87
2022-08-12T11:10:26.497Z,28.28
2022-08-12T11:21:16.533Z,27.73
2022-08-12T11:32:14.807Z,28.44
2022-08-12T11:43:19.886Z,30.05
2022-08-12T11:54:12.750Z,32.62
2022-08-12T12:05:16.473Z,34.25
2022-08-12T12:16:06.929Z,30.70
2022-08-12T12:27:00.705Z,27.26
2022-08-12T12:38:03.615Z,26.50
2022-08-12T12:48:45.945Z,27.70
2022-08-12T12:59:56.435Z,27.77
2022-08-12T13:10:50.373Z,25.90
2022-08-12T13:21:46.748Z,25.62
2022-08-12T13:32:56.550Z,25.32
2022-08-12T13:43:49.380Z,25.04
2022-08-12T13:54:56.382Z,24.73
2022-08-12T14:05:56.151Z,24.88
2022-08-12T14:16:52.437Z,23.20
2022-08-12T14:28:03.611Z,22.89
2022-08-12T14:38:54.990Z,22.87
2022-08-12T14:50:34.057Z,22.84
2022-08-12T15:00:50.965Z,21.79
2022-08-12T15:11:54.610Z,20.42
2022-08-12T15:22:54.165Z,19.79
2022-08-12T15:33:52.899Z,19.17
2022-08-12T15:44:52.477Z,19.02
2022-08-12T15:55:53.164Z,18.52
2022-08-12T16:07:06.055Z,18.65
2022-08-12T16:18:14.877Z,18.55
2022-08-12T16:29:15.011Z,18.59
2022-08-12T16:40:08.821Z,18.52
2022-08-12T16:51:10.102Z,18.86
2022-08-12T17:02:08.380Z,18.67
2022-08-12T17:13:10.237Z,18.77
2022-08-12T17:24:08.386Z,18.76
2022-08-12T17:35:09.752Z,18.95
2022-08-12T17:46:13.010Z,19.27
2022-08-12T17:57:16.739Z,18.80
2022-08-12T18:08:16.174Z,18.46
2022-08-12T18:19:16.254Z,18.29
2022-08-12T18:30:13.594Z,18.14
2022-08-12T18:41:21.411Z,18.04
2022-08-12T18:52:18.970Z,17.88
2022-08-12T19:03:38.984Z,17.82
2022-08-12T19:14:21.420Z,17.60
2022-08-12T19:25:17.331Z,17.60
2022-08-12T19:36:25.205Z,17.63
2022-08-12T19:47:08.682Z,17.48
2022-08-12T19:58:17.946Z,17.20
2022-08-12T20:09:14.168Z,17.02
2022-08-12T20:20:19.457Z,16.89
2022-08-12T20:31:17.811Z,16.85
2022-08-12T20:42:16.704Z,16.84
2022-08-12T20:53:18.897Z,16.75
2022-08-12T21:04:17.910Z,16.55
2022-08-12T21:15:18.121Z,16.48
2022-08-12T21:26:18.078Z,16.62
2022-08-12T21:37:27.467Z,16.57
2022-08-12T21:48:20.818Z,16.38
2022-08-12T21:59:18.637Z,16.52
2022-08-12T22:10:19.196Z,16.23
2022-08-12T22:21:24.660Z,16.01
2022-08-12T22:32:26.269Z,16.00
2022-08-12T22:43:30.096Z,16.10
2022-08-12T22:54:35.867Z,16.23
2022-08-12T23:05:36.982Z,16.08
2022-08-12T23:16:35.387Z,16.03
2022-08-12T23:27:50.323Z,16.48
2022-08-12T23:38:42.299Z,16.38
2022-08-12T23:49:57.183Z,16.47
